Time;durP1;ratioP1;P1;durP2;ratioP2;P2;SDS_P1;SDS_P2;PMS_P1;PMS_P2;Temp;Humidity;BMP_temperature;BMP_pressure;BME280_temperature;BME280_humidity;BME280_pressure;Samples;Min_cycle;Max_cycle;Signal;HPM_P1;HPM_P2
2022/09/13 00:01:11;;;;;;;;;;;;;;;23.82;60.00;99159.09;7317605;19;130336;-40
2022/09/13 00:03:36;;;;;;;;;;;;;;;23.79;60.13;99154.19;7316625;19;129606;-40
2022/09/13 00:06:09;;;;;;;;;;;;;;;23.84;60.39;99158.94;7317014;19;130045;-39
2022/09/13 00:08:34;;;;;;;;;;;;;;;23.81;60.34;99152.22;7315112;19;129587;-39
2022/09/13 00:10:59;;;;;;;;;;;;;;;23.82;60.37;99153.84;7314591;19;129112;-39
2022/09/13 00:13:25;;;;;;;;;;;;;;;23.80;59.78;99145.31;7315137;19;129000;-39
2022/09/13 00:15:50;;;;;;;;;;;;;;;23.82;60.41;99151.22;7315717;19;130506;-40
2022/09/13 00:18:17;;;;;;;;;;;;;;;23.82;60.26;99139.91;7315077;19;129359;-38
2022/09/13 00:20:42;;;;;;;;;;;;;;;23.81;59.92;99136.47;7315513;19;129220;-40
2022/09/13 00:23:08;;;;;;;;;;;;;;;23.82;59.94;99143.34;7315066;19;128925;-39
2022/09/13 00:25:34;;;;;;;;;;;;;;;23.82;60.12;99140.72;7315304;19;130904;-40
2022/09/13 00:27:59;;;;;;;;;;;;;;;23.82;59.93;99140.72;7316445;19;129134;-38
2022/09/13 00:30:24;;;;;;;;;;;;;;;23.83;59.56;99131.84;7312011;19;129789;-40
2022/09/13 00:32:49;;;;;;;;;;;;;;;23.83;60.18;99131.06;7315137;19;128832;-40
2022/09/13 00:35:14;;;;;;;;;;;;;;;23.83;60.05;99121.34;7315511;19;129664;-41
2022/09/13 00:37:40;;;;;;;;;;;;;;;23.83;59.83;99129.22;7315015;19;129049;-39
2022/09/13 00:40:06;;;;;;;;;;;;;;;23.84;59.67;99120.38;7313240;19;130314;-38
2022/09/13 00:42:32;;;;;;;;;;;;;;;23.83;59.79;99121.34;7314613;19;129069;-38
2022/09/13 00:45:02;;;;;;;;;;;;;;;23.84;59.75;99112.50;7315132;19;129127;-41
2022/09/13 00:47:27;;;;;;;;;;;;;;;23.84;60.05;99114.31;7315883;19;129316;-40
2022/09/13 00:50:00;;;;;;;;;;;;;;;23.84;59.87;99103.81;7313737;19;129623;-39
2022/09/13 00:52:28;;;;;;;;;;;;;;;23.84;59.90;99098.56;7315643;19;129488;-39
2022/09/13 00:55:05;;;;;;;;;;;;;;;23.83;60.30;99096.94;7314638;19;129112;-39
2022/09/13 00:57:33;;;;;;;;;;;;;;;23.82;60.13;99096.09;7315349;19;131152;-40
2022/09/13 01:00:11;;;;;;;;;;;;;;;23.82;60.65;99095.25;7312155;19;129584;-40
2022/09/13 01:02:38;;;;;;;;;;;;;;;23.83;60.36;99087.22;7314465;19;129658;-39
2022/09/13 01:05:04;;;;;;;;;;;;;;;23.84;60.34;99088.06;7314679;19;130757;-37
2022/09/13 01:07:29;;;;;;;;;;;;;;;23.82;60.00;99080.34;7315413;19;129486;-39
2022/09/13 01:09:55;;;;;;;;;;;;;;;23.84;60.17;99085.44;7312610;19;130762;-39
2022/09/13 01:12:20;;;;;;;;;;;;;;;23.83;59.71;99081.97;7314783;19;128985;-39
2022/09/13 01:14:46;;;;;;;;;;;;;;;23.83;59.90;99079.34;7314673;19;129620;-39
2022/09/13 01:17:12;;;;;;;;;;;;;;;23.83;59.79;99079.34;7313560;19;129250;-37
2022/09/13 01:19:37;;;;;;;;;;;;;;;23.73;59.63;99059.53;7310283;19;130455;-37
2022/09/13 01:22:17;;;;;;;;;;;;;;;23.83;59.66;99070.66;7311216;19;128950;-37
2022/09/13 01:24:49;;;;;;;;;;;;;;;23.73;59.49;99047.22;7314009;19;128887;-38
2022/09/13 01:27:32;;;;;;;;;;;;;;;23.81;60.00;99062.97;7313370;19;130782;-37
2022/09/13 01:30:03;;;;;;;;;;;;;;;23.82;59.58;99064.59;7311764;19;130505;-37
2022/09/13 01:32:40;;;;;;;;;;;;;;;23.71;59.76;99035.25;7313656;19;129333;-37
2022/09/13 01:35:11;;;;;;;;;;;;;;;23.81;60.40;99051.63;7314298;19;128993;-37
2022/09/13 01:37:45;;;;;;;;;;;;;;;23.83;60.21;99049.66;7313325;19;129172;-37
2022/09/13 01:40:10;;;;;;;;;;;;;;;23.81;59.83;99047.22;7310705;19;129241;-37
2022/09/13 01:42:38;;;;;;;;;;;;;;;23.80;60.39;99045.56;7313552;19;128936;-37
2022/09/13 01:45:09;;;;;;;;;;;;;;;23.79;60.34;99046.56;7314017;19;129562;-37
2022/09/13 01:47:43;;;;;;;;;;;;;;;23.78;60.17;99044.94;7313343;19;129163;-37
2022/09/13 01:50:09;;;;;;;;;;;;;;;23.75;59.89;99037.38;7310793;19;129524;-37
2022/09/13 01:52:37;;;;;;;;;;;;;;;23.82;60.14;99037.50;7312792;19;128987;-37
2022/09/13 01:55:07;;;;;;;;;;;;;;;23.80;60.34;99035.06;7312497;19;128910;-38
2022/09/13 01:57:32;;;;;;;;;;;;;;;23.73;60.41;99020.16;7313075;19;130863;-37
2022/09/13 02:00:11;;;;;;;;;;;;;;;23.81;60.19;99028.00;7310810;19;129210;-37
2022/09/13 02:02:55;;;;;;;;;;;;;;;23.81;59.68;99025.38;7313468;19;128911;-37
2022/09/13 02:05:31;;;;;;;;;;;;;;;23.81;60.24;99034.09;7312600;19;129765;-37
2022/09/13 02:07:59;;;;;;;;;;;;;;;23.80;60.52;99032.44;7312801;19;129232;-37
2022/09/13 02:10:28;;;;;;;;;;;;;;;23.71;59.60;99007.19;7310947;19;130002;-37
2022/09/13 02:12:54;;;;;;;;;;;;;;;23.82;60.22;99022.59;7313165;19;129187;-38
2022/09/13 02:15:25;;;;;;;;;;;;;;;23.81;60.42;99020.13;7313737;19;129101;-39
2022/09/13 02:17:59;;;;;;;;;;;;;;;23.83;59.84;99018.16;7312019;19;129439;-37
2022/09/13 02:20:29;;;;;;;;;;;;;;;23.83;59.85;99024.22;7310906;19;130063;-38
2022/09/13 02:22:57;;;;;;;;;;;;;;;23.81;60.26;99026.22;7312488;19;128950;-36
2022/09/13 02:25:23;;;;;;;;;;;;;;;23.80;59.86;99021.13;7313110;19;128961;-39
2022/09/13 02:27:51;;;;;;;;;;;;;;;23.81;60.27;99020.13;7312691;19;129545;-39
2022/09/13 02:30:18;;;;;;;;;;;;;;;23.78;60.57;99016.06;7309300;19;130160;-38
2022/09/13 02:32:58;;;;;;;;;;;;;;;23.72;60.52;99006.22;7312548;19;129017;-38
2022/09/13 02:35:28;;;;;;;;;;;;;;;23.79;60.65;99020.31;7319254;19;129236;-39
2022/09/13 02:37:59;;;;;;;;;;;;;;;23.80;60.26;99023.75;7320061;19;130132;-39
2022/09/13 02:40:27;;;;;;;;;;;;;;;23.82;60.35;99016.50;7317033;19;129670;-39
2022/09/13 02:42:56;;;;;;;;;;;;;;;23.79;60.23;99009.81;7319013;19;128978;-38
2022/09/13 02:45:25;;;;;;;;;;;;;;;23.82;60.41;99016.50;7318904;19;128866;-37
2022/09/13 02:47:56;;;;;;;;;;;;;;;23.78;60.53;99010.81;7319195;19;130875;-40
2022/09/13 02:50:40;;;;;;;;;;;;;;;23.67;60.73;98995.38;7316782;19;130537;-37
2022/09/13 02:53:17;;;;;;;;;;;;;;;23.82;59.71;99011.25;7318513;19;129103;-38
2022/09/13 02:55:52;;;;;;;;;;;;;;;23.80;60.06;99019.31;7319278;19;129023;-38
2022/09/13 02:58:26;;;;;;;;;;;;;;;23.81;59.95;99020.97;7318272;19;129678;-38
2022/09/13 03:00:52;;;;;;;;;;;;;;;23.79;60.56;99020.31;7319759;19;129829;-38
2022/09/13 03:03:17;;;;;;;;;;;;;;;23.80;60.50;99024.56;7319804;19;130189;-38
2022/09/13 03:05:42;;;;;;;;;;;;;;;23.81;59.91;99014.88;7319021;19;130422;-38
2022/09/13 03:08:09;;;;;;;;;;;;;;;23.79;60.13;99009.81;7318368;19;131729;-38
2022/09/13 03:10:55;;;;;;;;;;;;;;;23.79;60.59;99004.56;7315623;19;129492;-38
2022/09/13 03:13:23;;;;;;;;;;;;;;;23.78;59.68;99010.81;7317468;19;129652;-40
2022/09/13 03:15:54;;;;;;;;;;;;;;;23.78;60.35;98995.06;7318218;19;129428;-37
2022/09/13 03:18:37;;;;;;;;;;;;;;;23.79;60.33;98995.84;7316976;19;129606;-41
2022/09/13 03:21:21;;;;;;;;;;;;;;;23.77;60.84;98977.66;7318250;19;129451;-36
2022/09/13 03:23:49;;;;;;;;;;;;;;;23.80;60.37;98982.56;7317825;19;128946;-38
2022/09/13 03:26:15;;;;;;;;;;;;;;;23.81;60.63;98976.34;7317960;19;129854;-37
2022/09/13 03:28:53;;;;;;;;;;;;;;;23.81;60.01;98976.34;7317191;19;129436;-38
2022/09/13 03:31:38;;;;;;;;;;;;;;;23.81;60.47;98965.84;7317611;19;131719;-39
2022/09/13 03:34:17;;;;;;;;;;;;;;;23.81;60.57;98962.38;7316847;19;128947;-39
2022/09/13 03:37:00;;;;;;;;;;;;;;;23.79;60.62;98954.69;7318105;19;129441;-37
2022/09/13 03:39:31;;;;;;;;;;;;;;;23.76;60.27;98949.78;7314983;19;129758;-39
2022/09/13 03:41:59;;;;;;;;;;;;;;;23.77;60.21;98959.28;7316939;19;130052;-37
2022/09/13 03:44:26;;;;;;;;;;;;;;;23.75;60.70;98948.13;7316417;19;129539;-39
2022/09/13 03:46:56;;;;;;;;;;;;;;;23.79;60.68;98954.69;7316135;19;130455;-36
2022/09/13 03:49:22;;;;;;;;;;;;;;;23.78;60.10;98960.94;7314726;19;130304;-37
2022/09/13 03:51:48;;;;;;;;;;;;;;;23.81;60.01;98962.38;7314528;19;129473;-38
2022/09/13 03:54:16;;;;;;;;;;;;;;;23.81;60.57;98962.38;7317192;19;129391;-37
2022/09/13 03:56:41;;;;;;;;;;;;;;;23.80;60.67;98964.19;7316510;19;129181;-36
2022/09/13 03:59:07;;;;;;;;;;;;;;;23.82;60.22;98964.84;7313574;19;130367;-38
2022/09/13 04:01:32;;;;;;;;;;;;;;;23.81;59.91;98957.97;7316239;19;130929;-36
2022/09/13 04:03:57;;;;;;;;;;;;;;;23.81;60.06;98968.47;7314820;19;129288;-37
2022/09/13 04:06:23;;;;;;;;;;;;;;;23.80;60.34;98968.63;7315110;19;128847;-37
2022/09/13 04:08:48;;;;;;;;;;;;;;;23.80;59.96;98966.00;7317263;19;129433;-37
2022/09/13 04:11:13;;;;;;;;;;;;;;;23.80;60.21;98966.81;7315014;19;129278;-37
2022/09/13 04:13:39;;;;;;;;;;;;;;;23.80;60.27;98966.81;7316124;19;128938;-37
2022/09/13 04:16:05;;;;;;;;;;;;;;;23.78;60.41;98960.09;7314688;19;129128;-37
2022/09/13 04:18:31;;;;;;;;;;;;;;;23.68;60.62;98947.19;7316818;19;129564;-37
2022/09/13 04:20:57;;;;;;;;;;;;;;;23.79;60.30;98962.56;7315924;19;129773;-37
2022/09/13 04:23:23;;;;;;;;;;;;;;;23.80;60.60;98955.50;7316860;19;129089;-37
2022/09/13 04:25:50;;;;;;;;;;;;;;;23.77;60.57;98959.28;7316356;19;128756;-37
2022/09/13 04:28:15;;;;;;;;;;;;;;;23.77;60.27;98961.91;7314468;19;129802;-38
2022/09/13 04:30:42;;;;;;;;;;;;;;;23.77;60.61;98951.41;7315087;19;129395;-37
2022/09/13 04:33:08;;;;;;;;;;;;;;;23.78;60.22;98955.69;7316479;19;129274;-37
2022/09/13 04:35:33;;;;;;;;;;;;;;;23.79;60.23;98951.22;7315464;19;129267;-37
2022/09/13 04:37:58;;;;;;;;;;;;;;;23.78;60.34;98955.69;7317205;19;129033;-37
2022/09/13 04:40:24;;;;;;;;;;;;;;;23.79;60.05;98953.84;7312013;19;129957;-37
2022/09/13 04:42:49;;;;;;;;;;;;;;;23.79;59.95;98954.69;7314862;19;128797;-38
2022/09/13 04:45:14;;;;;;;;;;;;;;;23.76;60.05;98949.78;7312278;19;129709;-37
2022/09/13 04:47:40;;;;;;;;;;;;;;;23.76;60.73;98952.41;7314106;19;130310;-37
2022/09/13 04:50:06;;;;;;;;;;;;;;;23.77;60.44;98950.56;7303247;19;130415;-37
2022/09/13 04:52:31;;;;;;;;;;;;;;;23.75;60.14;98953.38;7307166;19;131066;-37
2022/09/13 04:55:00;;;;;;;;;;;;;;;23.76;60.76;98960.28;7306276;19;130242;-37
2022/09/13 04:57:25;;;;;;;;;;;;;;;23.77;60.95;98956.66;7307149;19;129612;-37
2022/09/13 04:59:50;;;;;;;;;;;;;;;23.68;60.48;98941.94;7306080;19;131784;-37
2022/09/13 05:02:15;;;;;;;;;;;;;;;23.76;60.46;98949.78;7307377;19;129768;-37
2022/09/13 05:04:41;;;;;;;;;;;;;;;23.77;60.80;98950.56;7312511;19;129854;-37
2022/09/13 05:07:06;;;;;;;;;;;;;;;23.78;60.54;98953.06;7306934;19;130170;-37
2022/09/13 05:09:31;;;;;;;;;;;;;;;23.80;60.11;98956.31;7302069;19;130877;-35
2022/09/13 05:11:56;;;;;;;;;;;;;;;23.79;60.15;98954.69;7307212;19;130194;-38
2022/09/13 05:14:22;;;;;;;;;;;;;;;23.80;59.91;98951.06;7305285;19;129923;-35
2022/09/13 05:16:47;;;;;;;;;;;;;;;23.79;60.01;98948.59;7304534;19;130162;-37
2022/09/13 05:19:12;;;;;;;;;;;;;;;23.80;60.54;98945.81;7306086;19;131601;-37
2022/09/13 05:21:38;;;;;;;;;;;;;;;23.78;59.89;98939.94;7306371;19;130789;-37
2022/09/13 05:24:03;;;;;;;;;;;;;;;23.80;59.87;98939.75;7304126;19;130093;-38
2022/09/13 05:26:32;;;;;;;;;;;;;;;23.80;59.84;98939.75;7308651;19;130044;-37
2022/09/13 05:28:57;;;;;;;;;;;;;;;23.80;60.37;98930.06;7304038;19;131015;-37
2022/09/13 05:31:24;;;;;;;;;;;;;;;23.78;60.20;98942.56;7306682;19;132009;-37
2022/09/13 05:33:54;;;;;;;;;;;;;;;23.79;59.97;98946.81;7306252;19;129489;-37
2022/09/13 05:36:19;;;;;;;;;;;;;;;23.78;60.36;98932.06;7306060;19;130082;-38
2022/09/13 05:38:45;;;;;;;;;;;;;;;23.78;60.38;98937.31;7308514;19;130501;-38
2022/09/13 05:41:10;;;;;;;;;;;;;;;23.78;60.46;98937.31;7306695;19;130630;-37
2022/09/13 05:43:35;;;;;;;;;;;;;;;23.79;60.33;98933.69;7307836;19;130274;-37
2022/09/13 05:46:03;;;;;;;;;;;;;;;23.78;60.21;98934.69;7307442;19;131269;-38
2022/09/13 05:48:29;;;;;;;;;;;;;;;23.78;59.93;98923.34;7308961;19;131289;-37
2022/09/13 05:50:54;;;;;;;;;;;;;;;23.76;60.21;98920.91;7315023;19;130345;-37
2022/09/13 05:53:20;;;;;;;;;;;;;;;23.76;60.57;98910.41;7312005;19;129472;-38
2022/09/13 05:55:45;;;;;;;;;;;;;;;23.75;60.18;98903.50;7313098;19;130065;-37
2022/09/13 05:58:10;;;;;;;;;;;;;;;23.75;60.41;98894.81;7308533;19;130304;-37
2022/09/13 06:00:36;;;;;;;;;;;;;;;23.73;59.83;98900.25;7304093;19;131022;-38
2022/09/13 06:03:01;;;;;;;;;;;;;;;23.76;60.68;98901.69;7297867;19;130182;-38
2022/09/13 06:05:26;;;;;;;;;;;;;;;23.72;58.80;98898.59;7308490;19;130438;-35
2022/09/13 06:07:51;;;;;;;;;;;;;;;23.72;59.95;98903.00;7304561;19;132590;-37
2022/09/13 06:10:17;;;;;;;;;;;;;;;23.74;60.05;98893.16;7301884;19;129782;-37
2022/09/13 06:12:42;;;;;;;;;;;;;;;23.76;60.08;98899.91;7311827;19;129838;-38
2022/09/13 06:15:08;;;;;;;;;;;;;;;23.70;59.97;98882.19;7303141;19;130059;-36
2022/09/13 06:17:33;;;;;;;;;;;;;;;23.72;60.07;98890.72;7311809;19;131092;-37
2022/09/13 06:19:58;;;;;;;;;;;;;;;23.76;59.31;98892.03;7312723;19;130191;-37
2022/09/13 06:22:23;;;;;;;;;;;;;;;23.76;59.42;98888.56;7312761;19;129986;-37
2022/09/13 06:24:48;;;;;;;;;;;;;;;23.78;58.83;98892.69;7314665;19;130281;-37
2022/09/13 06:27:14;;;;;;;;;;;;;;;23.76;58.53;98892.03;7313821;19;131113;-37
2022/09/13 06:29:39;;;;;;;;;;;;;;;23.77;58.82;98890.19;7312012;19;129988;-37
2022/09/13 06:32:05;;;;;;;;;;;;;;;23.74;58.83;98899.25;7309843;19;129688;-37
2022/09/13 06:34:30;;;;;;;;;;;;;;;23.76;58.64;98897.28;7312891;19;129286;-38
2022/09/13 06:36:55;;;;;;;;;;;;;;;23.76;58.43;98902.53;7307859;19;130265;-37
2022/09/13 06:39:20;;;;;;;;;;;;;;;23.69;59.40;98890.25;7312463;19;130135;-37
2022/09/13 06:41:46;;;;;;;;;;;;;;;23.73;59.36;98899.41;7315432;19;131089;-38
2022/09/13 06:44:11;;;;;;;;;;;;;;;23.72;58.30;98901.22;7312594;19;130196;-38
2022/09/13 06:46:37;;;;;;;;;;;;;;;23.75;59.15;98900.88;7312991;19;129679;-38
2022/09/13 06:49:03;;;;;;;;;;;;;;;23.74;59.15;98894.00;7313693;19;130974;-37
2022/09/13 06:51:29;;;;;;;;;;;;;;;23.72;58.35;98890.72;7312402;19;129692;-38
2022/09/13 06:53:57;;;;;;;;;;;;;;;23.71;59.03;98886.47;7313495;19;130649;-37
2022/09/13 06:56:33;;;;;;;;;;;;;;;23.69;58.63;98875.31;7312476;19;130750;-37
2022/09/13 06:58:59;;;;;;;;;;;;;;;23.70;58.28;98884.81;7314340;19;129784;-38
2022/09/13 07:01:25;;;;;;;;;;;;;;;23.71;58.37;98883.84;7310252;19;129791;-37
2022/09/13 07:03:52;;;;;;;;;;;;;;;23.70;58.63;98892.69;7312231;19;131280;-37
2022/09/13 07:06:18;;;;;;;;;;;;;;;23.68;59.10;98889.44;7313589;19;130613;-37
2022/09/13 07:08:44;;;;;;;;;;;;;;;23.67;58.74;98887.78;7306266;19;130836;-37
2022/09/13 07:11:10;;;;;;;;;;;;;;;23.69;58.47;98891.06;7302499;19;130678;-37
2022/09/13 07:13:36;;;;;;;;;;;;;;;23.68;58.66;98884.19;7310688;19;130390;-35
2022/09/13 07:16:06;;;;;;;;;;;;;;;23.61;58.63;98870.09;7313541;19;130391;-37
2022/09/13 07:18:31;;;;;;;;;;;;;;;23.55;58.67;98868.13;7311107;19;129099;-37
2022/09/13 07:21:04;;;;;;;;;;;;;;;23.64;59.03;98882.06;7309340;19;129771;-37
2022/09/13 07:23:33;;;;;;;;;;;;;;;23.62;59.04;98863.84;7310172;19;130205;-37
2022/09/13 07:26:04;;;;;;;;;;;;;;;23.63;58.92;98870.75;7311831;19;131086;-38
2022/09/13 07:28:49;;;;;;;;;;;;;;;23.61;59.14;98877.97;7313275;19;130205;-37
2022/09/13 07:31:16;;;;;;;;;;;;;;;23.62;58.96;98882.22;7313287;19;129304;-37
2022/09/13 07:33:42;;;;;;;;;;;;;;;23.60;59.05;98881.56;7311486;19;130474;-37
2022/09/13 07:36:08;;;;;;;;;;;;;;;23.61;58.70;98888.47;7311572;19;131181;-37
2022/09/13 07:38:40;;;;;;;;;;;;;;;23.61;58.49;98882.41;7311446;19;129034;-37
2022/09/13 07:41:07;;;;;;;;;;;;;;;23.59;59.08;98884.38;7309563;19;130388;-37
2022/09/13 07:43:34;;;;;;;;;;;;;;;23.56;59.54;98877.66;7311866;19;130391;-37
2022/09/13 07:46:00;;;;;;;;;;;;;;;23.47;59.47;98860.31;7312474;19;130316;-37
2022/09/13 07:48:26;;;;;;;;;;;;;;;23.58;59.30;98878.31;7311930;19;129935;-37
2022/09/13 07:50:58;;;;;;;;;;;;;;;23.56;59.16;98875.03;7311306;19;131546;-38
2022/09/13 07:53:23;;;;;;;;;;;;;;;23.57;58.84;98887.16;7310043;19;130351;-37
2022/09/13 07:55:48;;;;;;;;;;;;;;;23.57;59.41;98896.88;7312591;19;130206;-37
2022/09/13 07:58:14;;;;;;;;;;;;;;;23.56;59.03;98890.78;7308941;19;129950;-37
2022/09/13 08:00:39;;;;;;;;;;;;;;;23.57;59.74;98891.63;7310102;19;130952;-37
2022/09/13 08:03:04;;;;;;;;;;;;;;;23.56;59.66;98893.41;7310202;19;130593;-37
2022/09/13 08:05:31;;;;;;;;;;;;;;;23.54;59.83;98898.00;7311081;19;131461;-38
2022/09/13 08:07:56;;;;;;;;;;;;;;;23.56;59.44;98896.03;7311361;19;130114;-37
2022/09/13 08:10:21;;;;;;;;;;;;;;;23.45;59.67;98875.41;7306845;19;131945;-38
2022/09/13 08:12:47;;;;;;;;;;;;;;;23.56;59.33;98900.44;7311058;19;130302;-38
2022/09/13 08:15:12;;;;;;;;;;;;;;;23.54;59.44;98903.25;7306854;19;130189;-37
2022/09/13 08:17:37;;;;;;;;;;;;;;;23.55;59.40;98915.38;7311859;19;131256;-38
2022/09/13 08:20:03;;;;;;;;;;;;;;;23.54;59.68;98903.25;7307746;19;129831;-37
2022/09/13 08:22:28;;;;;;;;;;;;;;;23.55;59.94;98904.88;7310117;19;130102;-37
2022/09/13 08:24:53;;;;;;;;;;;;;;;23.54;59.91;98903.25;7310135;19;129596;-37
2022/09/13 08:27:18;;;;;;;;;;;;;;;23.53;59.96;98914.75;7311278;19;130087;-37
2022/09/13 08:29:44;;;;;;;;;;;;;;;23.53;60.01;98922.63;7309275;19;130820;-38
2022/09/13 08:32:09;;;;;;;;;;;;;;;23.48;59.74;98910.97;7310168;19;131095;-37
2022/09/13 08:34:35;;;;;;;;;;;;;;;23.55;59.70;98919.81;7309596;19;130810;-37
2022/09/13 08:37:00;;;;;;;;;;;;;;;23.54;60.21;98913.75;7309313;19;131418;-37
2022/09/13 08:39:25;;;;;;;;;;;;;;;23.53;60.30;98909.50;7308124;19;130675;-37
2022/09/13 08:41:54;;;;;;;;;;;;;;;23.45;59.69;98899.03;7310810;19;130801;-37
2022/09/13 08:44:22;;;;;;;;;;;;;;;23.53;60.11;98906.88;7308881;19;131011;-37
2022/09/13 08:46:48;;;;;;;;;;;;;;;23.53;60.10;98901.63;7312334;19;129488;-37
2022/09/13 08:49:17;;;;;;;;;;;;;;;23.55;60.40;98898.84;7305530;19;131117;-38
2022/09/13 08:51:50;;;;;;;;;;;;;;;23.54;60.11;98902.41;7308004;19;130042;-37
2022/09/13 08:54:17;;;;;;;;;;;;;;;23.53;59.68;98896.38;7309533;19;131230;-37
2022/09/13 08:56:48;;;;;;;;;;;;;;;23.53;59.93;98899.00;7309394;19;130224;-37
2022/09/13 08:59:19;;;;;;;;;;;;;;;23.49;60.39;98895.06;7308944;19;130175;-38
2022/09/13 09:02:03;;;;;;;;;;;;;;;23.51;60.14;98908.84;7308974;19;129372;-37
2022/09/13 09:04:43;;;;;;;;;;;;;;;23.52;60.38;98899.97;7310080;19;132600;-38
2022/09/13 09:07:20;;;;;;;;;;;;;;;23.45;60.35;98892.94;7310368;19;131100;-37
2022/09/13 09:09:46;;;;;;;;;;;;;;;23.52;60.74;98899.97;7307147;19;130653;-37
2022/09/13 09:12:31;;;;;;;;;;;;;;;23.41;60.12;98876.72;7304575;19;150658;-37
2022/09/13 09:14:59;;;;;;;;;;;;;;;23.51;60.30;98881.78;7298326;19;131007;-37
2022/09/13 09:17:28;;;;;;;;;;;;;;;23.50;60.05;98880.97;7304419;19;130036;-37
2022/09/13 09:19:59;;;;;;;;;;;;;;;23.52;60.27;98873.72;7307044;19;131121;-35
2022/09/13 09:22:29;;;;;;;;;;;;;;;23.40;60.01;98848.88;7308585;19;130802;-37
2022/09/13 09:24:55;;;;;;;;;;;;;;;23.48;60.34;98872.44;7307547;19;129714;-38
2022/09/13 09:27:21;;;;;;;;;;;;;;;23.51;60.67;98876.53;7310206;19;130877;-38
2022/09/13 09:29:48;;;;;;;;;;;;;;;23.52;60.83;98881.59;7307639;19;129117;-37
2022/09/13 09:32:32;;;;;;;;;;;;;;;23.51;60.48;98877.34;7308526;19;130138;-38
2022/09/13 09:35:07;;;;;;;;;;;;;;;23.49;60.87;98876.69;7307452;19;132581;-37
2022/09/13 09:37:33;;;;;;;;;;;;;;;23.49;60.16;98868.81;7306148;19;130786;-37
2022/09/13 09:40:01;;;;;;;;;;;;;;;23.50;60.55;98875.72;7306753;19;129291;-38
2022/09/13 09:42:28;;;;;;;;;;;;;;;23.50;60.49;98874.91;7306278;19;131338;-37
2022/09/13 09:44:59;;;;;;;;;;;;;;;23.50;60.52;98873.09;7307642;19;130320;-37
2022/09/13 09:47:26;;;;;;;;;;;;;;;23.50;60.37;98870.47;7307240;19;130216;-37
2022/09/13 09:50:25;;;;;;;;;;;;;;;23.39;61.11;98855.09;7306177;19;130491;-37
2022/09/13 09:52:56;;;;;;;;;;;;;;;23.49;60.73;98860.13;7306884;19;130492;-37
2022/09/13 09:55:25;;;;;;;;;;;;;;;23.48;60.76;98856.72;7308212;19;130415;-37
2022/09/13 09:57:56;;;;;;;;;;;;;;;23.49;60.21;98852.25;7303966;19;130885;-38
2022/09/13 10:00:23;;;;;;;;;;;;;;;23.49;60.42;98847.84;7305608;19;129830;-35
2022/09/13 10:02:51;;;;;;;;;;;;;;;23.51;60.30;98847.66;7306744;19;131199;-38
2022/09/13 10:05:18;;;;;;;;;;;;;;;23.51;60.12;98845.88;7307918;19;130337;-36
2022/09/13 10:07:51;;;;;;;;;;;;;;;23.48;60.12;98838.34;7308121;19;129094;-37
2022/09/13 10:10:22;;;;;;;;;;;;;;;23.40;60.32;98822.63;7304807;19;131117;-36
2022/09/13 10:12:51;;;;;;;;;;;;;;;23.54;60.19;98832.41;7307257;19;130408;-38
2022/09/13 10:15:19;;;;;;;;;;;;;;;23.49;60.25;98824.22;7306849;19;130458;-37
2022/09/13 10:18:04;;;;;;;;;;;;;;;23.49;60.59;98818.97;7305736;19;129086;-37
2022/09/13 10:20:30;;;;;;;;;;;;;;;23.51;60.31;98821.44;7301819;19;130055;-38
2022/09/13 10:23:13;;;;;;;;;;;;;;;23.48;60.38;98809.47;7306206;19;131049;-37
2022/09/13 10:25:40;;;;;;;;;;;;;;;23.47;60.67;98817.53;7306260;19;130455;-37
2022/09/13 10:28:10;;;;;;;;;;;;;;;23.47;60.30;98815.69;7309155;19;130213;-37
2022/09/13 10:30:45;;;;;;;;;;;;;;;23.49;60.92;98816.34;7299832;19;129120;-37
2022/09/13 10:33:31;;;;;;;;;;;;;;;23.50;60.71;98817.19;7305131;19;130700;-37
2022/09/13 10:35:59;;;;;;;;;;;;;;;23.50;60.77;98812.75;7306681;19;130149;-37
2022/09/13 10:38:32;;;;;;;;;;;;;;;23.49;60.41;98816.34;7305660;19;129907;-37
2022/09/13 10:40:58;;;;;;;;;;;;;;;23.52;60.18;98805.50;7306097;19;130063;-37
2022/09/13 10:43:26;;;;;;;;;;;;;;;23.48;61.07;98803.41;7303886;19;130837;-38
2022/09/13 10:45:51;;;;;;;;;;;;;;;23.51;60.08;98803.06;7307299;19;129288;-37
2022/09/13 10:48:18;;;;;;;;;;;;;;;23.52;60.22;98795.03;7306519;19;130136;-37
2022/09/13 10:51:00;;;;;;;;;;;;;;;23.49;61.06;98794.53;7306795;19;130432;-37
2022/09/13 10:53:39;;;;;;;;;;;;;;;23.49;60.30;98779.63;7305524;19;131056;-37
2022/09/13 10:56:17;;;;;;;;;;;;;;;23.53;60.53;98791.44;7311659;19;129779;-37
2022/09/13 10:58:43;;;;;;;;;;;;;;;23.48;60.76;98788.50;7310422;19;129739;-36
2022/09/13 11:01:27;;;;;;;;;;;;;;;23.49;60.74;98792.75;7307969;19;130069;-38
2022/09/13 11:03:58;;;;;;;;;;;;;;;23.51;60.52;98777.66;7313518;19;130006;-37
2022/09/13 11:06:23;;;;;;;;;;;;;;;23.50;60.75;98786.53;7311201;19;130937;-37
2022/09/13 11:08:55;;;;;;;;;;;;;;;23.52;60.64;98787.16;7311939;19;129677;-37
2022/09/13 11:11:49;;;;;;;;;;;;;;;23.52;60.82;98779.28;7314495;19;130327;-37
2022/09/13 11:14:14;;;;;;;;;;;;;;;23.55;60.58;98773.69;7300728;19;132013;-37
2022/09/13 11:16:48;;;;;;;;;;;;;;;23.52;60.61;98779.28;7313563;19;131001;-37
2022/09/13 11:19:25;;;;;;;;;;;;;;;23.52;60.56;98774.03;7310393;19;129213;-37
2022/09/13 11:22:08;;;;;;;;;;;;;;;23.42;60.49;98760.31;7312909;19;131746;-37
2022/09/13 11:24:34;;;;;;;;;;;;;;;23.55;60.57;98767.63;7311369;19;129728;-38
2022/09/13 11:27:03;;;;;;;;;;;;;;;23.52;60.55;98774.03;7313010;19;129686;-38
2022/09/13 11:29:40;;;;;;;;;;;;;;;23.49;60.55;98766.50;7303641;19;130324;-38
2022/09/13 11:32:12;;;;;;;;;;;;;;;23.52;60.14;98768.00;7313015;19;130285;-37
2022/09/13 11:34:37;;;;;;;;;;;;;;;23.56;60.46;98764.84;7310357;19;129897;-37
2022/09/13 11:37:02;;;;;;;;;;;;;;;23.47;60.11;98751.94;7311653;19;129451;-37
2022/09/13 11:39:37;;;;;;;;;;;;;;;23.56;60.88;98758.75;7310069;19;129399;-37
2022/09/13 11:42:13;;;;;;;;;;;;;;;23.54;59.71;98763.34;7310207;19;129890;-37
2022/09/13 11:44:50;;;;;;;;;;;;;;;23.56;59.83;98756.97;7310648;19;129275;-37
2022/09/13 11:47:21;;;;;;;;;;;;;;;23.56;59.60;98759.59;7311054;19;129862;-37
2022/09/13 11:49:49;;;;;;;;;;;;;;;23.54;59.58;98756.31;7308993;19;129334;-38
2022/09/13 11:52:33;;;;;;;;;;;;;;;23.49;60.13;98748.13;7310767;19;130813;-37
2022/09/13 11:55:17;;;;;;;;;;;;;;;23.52;60.04;98754.88;7310714;19;130930;-37
2022/09/13 11:57:54;;;;;;;;;;;;;;;23.56;59.77;98748.28;7312072;19;130314;-37
2022/09/13 12:00:24;;;;;;;;;;;;;;;23.53;59.08;98752.06;7310826;19;129177;-37
2022/09/13 12:03:11;;;;;;;;;;;;;;;23.57;60.10;98749.91;7311210;19;130147;-37
2022/09/13 12:05:43;;;;;;;;;;;;;;;23.59;59.33;98742.66;7309370;19;130317;-37
2022/09/13 12:08:08;;;;;;;;;;;;;;;23.57;59.22;98740.22;7307896;19;129558;-38
2022/09/13 12:10:37;;;;;;;;;;;;;;;23.55;59.69;98736.94;7308359;19;129639;-37
2022/09/13 12:13:03;;;;;;;;;;;;;;;23.53;59.72;98741.56;7311498;19;129853;-37
2022/09/13 12:15:28;;;;;;;;;;;;;;;23.56;59.67;98732.53;7309477;19;131225;-37
2022/09/13 12:17:58;;;;;;;;;;;;;;;23.53;59.45;98733.69;7311231;19;129645;-37
2022/09/13 12:20:29;;;;;;;;;;;;;;;23.53;59.89;98738.13;7308124;19;130050;-37
2022/09/13 12:22:57;;;;;;;;;;;;;;;23.58;59.22;98727.94;7310489;19;130661;-37
2022/09/13 12:25:24;;;;;;;;;;;;;;;23.56;59.26;98733.34;7310116;19;130752;-37
2022/09/13 12:27:55;;;;;;;;;;;;;;;23.49;59.10;98726.31;7312036;19;131632;-37
2022/09/13 12:30:22;;;;;;;;;;;;;;;23.47;59.69;98716.00;7308213;19;131604;-36
2022/09/13 12:32:48;;;;;;;;;;;;;;;23.50;59.42;98718.31;7309775;19;130251;-37
2022/09/13 12:35:16;;;;;;;;;;;;;;;23.57;59.35;98719.22;7309605;19;129597;-38
2022/09/13 12:37:51;;;;;;;;;;;;;;;23.56;58.94;98717.59;7310081;19;131233;-38
2022/09/13 12:40:35;;;;;;;;;;;;;;;23.59;59.89;98719.88;7306629;19;130733;-38
2022/09/13 12:43:19;;;;;;;;;;;;;;;23.53;58.90;98722.38;7309009;19;129907;-37
2022/09/13 12:45:44;;;;;;;;;;;;;;;23.55;58.61;98715.97;7308616;19;131201;-36